createdAt,value
2022-08-09T00:01:03.551Z,0.8
2022-08-09T00:02:13.212Z,0.8
2022-08-09T00:04:01.155Z,0.6
2022-08-09T00:04:35.602Z,0.7
2022-08-09T00:06:17.204Z,0.9
2022-08-09T00:06:54.912Z,0.7
2022-08-09T00:08:04.668Z,1
2022-08-09T00:09:14.515Z,0.8
2022-08-09T00:10:24.453Z,0.8
2022-08-09T00:11:55.116Z,0.8
2022-08-09T00:12:43.587Z,0.6
2022-08-09T00:13:53.466Z,0.7
2022-08-09T00:15:06.487Z,0.6
2022-08-09T00:16:13.942Z,0.6
2022-08-09T00:18:06.276Z,0.4
2022-08-09T00:18:35.896Z,0.7
2022-08-09T00:19:47.956Z,0.8
2022-08-09T00:20:55.900Z,0.6
2022-08-09T00:22:04.593Z,0.8
2022-08-09T00:23:54.150Z,1.2
2022-08-09T00:24:25.053Z,1.4
2022-08-09T00:25:35.704Z,0.8
2022-08-09T00:26:45.390Z,1.5
2022-08-09T00:27:55.040Z,1
2022-08-09T00:29:12.296Z,0.7
2022-08-09T00:30:25.014Z,0.9
2022-08-09T00:31:30.910Z,0.7
2022-08-09T00:32:38.215Z,1
2022-08-09T00:33:49.287Z,0.6
2022-08-09T00:34:58.572Z,0.8
2022-08-09T00:36:07.920Z,0.9
2022-08-09T00:37:16.597Z,1
2022-08-09T00:38:25.303Z,0.9
2022-08-09T00:40:10.157Z,0.7
2022-08-09T00:40:51.539Z,0.9
2022-08-09T00:44:08.865Z,1
2022-08-09T00:44:09.777Z,0.6
2022-08-09T00:44:26.106Z,0.4
2022-08-09T00:45:27.417Z,0.8
2022-08-09T00:46:56.786Z,1
2022-08-09T00:47:47.822Z,0.7
2022-08-09T00:48:57.460Z,0.7
2022-08-09T00:50:07.176Z,0.8
2022-08-09T00:51:16.901Z,0.7
2022-08-09T00:52:28.241Z,0.4
2022-08-09T00:53:37.324Z,0.6
2022-08-09T00:54:47.118Z,1
2022-08-09T00:56:04.254Z,0.4
2022-08-09T00:57:09.130Z,0.6
2022-08-09T00:58:22.123Z,0.7
2022-08-09T00:59:31.703Z,0.6
2022-08-09T01:00:39.428Z,0.6
2022-08-09T01:01:49.182Z,0.4
2022-08-09T01:02:56.752Z,0.8
2022-08-09T01:04:06.482Z,0.8
2022-08-09T01:05:21.931Z,0.7
2022-08-09T01:06:35.286Z,0.8
2022-08-09T01:07:59.582Z,0.7
2022-08-09T01:08:48.962Z,0.7
2022-08-09T01:09:58.945Z,0.7
2022-08-09T01:11:08.483Z,0.8
2022-08-09T01:12:17.326Z,1.4
2022-08-09T01:13:31.255Z,1.7
2022-08-09T01:14:36.661Z,2.2
2022-08-09T01:15:51.925Z,1.9
2022-08-09T01:16:56.044Z,1.6
2022-08-09T01:18:04.738Z,1.2
2022-08-09T01:19:16.836Z,1.3
2022-08-09T01:20:25.029Z,0.6
2022-08-09T01:21:36.213Z,0.8
2022-08-09T01:22:45.512Z,0.8
2022-08-09T01:24:01.469Z,0.7
2022-08-09T01:25:06.894Z,0.8
2022-08-09T01:26:16.598Z,0.8
2022-08-09T01:27:26.341Z,0.7
2022-08-09T01:28:36.054Z,0.8
2022-08-09T01:29:55.027Z,0.9
2022-08-09T01:30:55.388Z,0.8
2022-08-09T01:32:29.243Z,1
2022-08-09T01:33:14.783Z,1.1
2022-08-09T01:34:24.455Z,1.2
2022-08-09T01:35:38.181Z,1.1
2022-08-09T01:36:42.875Z,1.1
2022-08-09T01:38:06.497Z,1
2022-08-09T01:39:01.215Z,1.1
2022-08-09T01:40:10.874Z,1.4
2022-08-09T01:41:25.828Z,1.2
2022-08-09T01:42:32.448Z,1.2
2022-08-09T01:43:51.351Z,1
2022-08-09T01:44:51.637Z,1.3
2022-08-09T01:46:01.433Z,1.5
2022-08-09T01:47:12.163Z,0.9
2022-08-09T01:48:24.161Z,1.1
2022-08-09T01:49:38.957Z,0.9
2022-08-09T01:50:43.206Z,1
2022-08-09T01:51:54.723Z,1
2022-08-09T01:53:19.086Z,1
2022-08-09T01:54:14.301Z,1.1
2022-08-09T01:55:23.970Z,0.9
2022-08-09T01:56:33.622Z,0.8
2022-08-09T01:57:44.281Z,0.9
2022-08-09T01:58:52.951Z,1.1
2022-08-09T02:00:08.858Z,0.8
2022-08-09T02:01:18.233Z,0.9
2022-08-09T02:02:22.962Z,1.2
2022-08-09T02:03:32.629Z,1.2
2022-08-09T02:04:45.466Z,0.9
2022-08-09T02:06:04.290Z,1
2022-08-09T02:07:03.587Z,1.1
2022-08-09T02:08:36.309Z,1.1
2022-08-09T02:09:25.083Z,1
2022-08-09T02:10:33.728Z,1
2022-08-09T02:11:44.413Z,1
2022-08-09T02:12:53.059Z,1.1
2022-08-09T02:14:06.783Z,1.1
2022-08-09T02:15:15.591Z,1.3
2022-08-09T02:16:30.896Z,1.5
2022-08-09T02:18:01.822Z,1.2
2022-08-09T02:18:47.690Z,1.3
2022-08-09T02:19:55.184Z,1.4
2022-08-09T02:21:04.962Z,1.2
2022-08-09T02:22:14.605Z,1.4
2022-08-09T02:23:24.414Z,0.9
2022-08-09T02:24:34.101Z,1.1
2022-08-09T02:25:45.824Z,1
2022-08-09T02:26:53.538Z,1.2
2022-08-09T02:28:03.957Z,1.5
2022-08-09T02:29:12.880Z,1.4
2022-08-09T02:30:22.519Z,1.3
2022-08-09T02:31:34.124Z,1.3
2022-08-09T02:32:40.918Z,1.3
2022-08-09T02:33:58.787Z,1.2
2022-08-09T02:35:00.257Z,1.3
2022-08-09T02:36:10.920Z,1.5
2022-08-09T02:37:20.607Z,1
2022-08-09T02:38:30.272Z,1.2
2022-08-09T02:39:42.167Z,1.4
2022-08-09T02:40:50.700Z,1.4
2022-08-09T02:41:59.254Z,1.7
2022-08-09T02:43:08.923Z,1.5
2022-08-09T02:44:25.520Z,1.4
2022-08-09T02:45:30.259Z,1.2
2022-08-09T02:46:40.902Z,1.5
2022-08-09T02:47:58.160Z,1.4
2022-08-09T02:49:01.244Z,1.3
2022-08-09T02:50:11.056Z,1.4
2022-08-09T02:51:20.697Z,1.6
2022-08-09T02:52:30.647Z,1.3
2022-08-09T02:53:43.058Z,1.3
2022-08-09T02:54:54.795Z,1.5
2022-08-09T02:56:01.538Z,1.4
2022-08-09T02:57:13.815Z,1.1
2022-08-09T02:58:33.301Z,1.6
2022-08-09T02:59:36.243Z,1.3
2022-08-09T03:00:47.912Z,1.2
2022-08-09T03:02:05.249Z,1.5
2022-08-09T03:03:04.539Z,1.4
2022-08-09T03:04:18.489Z,1.2
2022-08-09T03:05:24.749Z,1.1
2022-08-09T03:06:33.435Z,1.4
2022-08-09T03:07:43.136Z,1.2
2022-08-09T03:08:52.365Z,1.2
2022-08-09T03:10:01.448Z,1.4
2022-08-09T03:11:10.218Z,1.4
2022-08-09T03:12:18.812Z,1.6
2022-08-09T03:13:43.537Z,1.5
2022-08-09T03:14:38.160Z,1.1
2022-08-09T03:16:05.003Z,1.1
2022-08-09T03:16:59.513Z,1.2
2022-08-09T03:18:10.778Z,1.1
2022-08-09T03:19:52.126Z,1.3
2022-08-09T03:20:30.463Z,1.2
2022-08-09T03:21:40.114Z,1
2022-08-09T03:22:54.603Z,1.3
2022-08-09T03:24:04.182Z,1.1
2022-08-09T03:25:22.096Z,1.1
2022-08-09T03:26:21.917Z,1
2022-08-09T03:27:37.262Z,1
2022-08-09T03:28:43.479Z,1.1
2022-08-09T03:29:57.476Z,1.2
2022-08-09T03:31:04.366Z,1.2
2022-08-09T03:32:12.314Z,1.2
2022-08-09T03:33:21.974Z,1.2
2022-08-09T03:34:31.652Z,1.1
2022-08-09T03:35:44.673Z,1
2022-08-09T03:36:58.436Z,1.2
2022-08-09T03:38:02.626Z,1.3
2022-08-09T03:39:12.407Z,1.4
2022-08-09T03:40:23.075Z,1
2022-08-09T03:41:44.880Z,0.9
2022-08-09T03:42:44.387Z,1
2022-08-09T03:44:04.099Z,1.4
2022-08-09T03:45:04.661Z,1.5
2022-08-09T03:46:20.471Z,1.3
2022-08-09T03:47:24.976Z,1.2
2022-08-09T03:48:34.647Z,1.5
2022-08-09T03:49:57.878Z,1
2022-08-09T03:50:55.978Z,1.1
2022-08-09T03:52:05.667Z,1.3
2022-08-09T03:53:15.395Z,1.5
2022-08-09T03:54:29.084Z,1.6
2022-08-09T03:55:36.028Z,1.4
2022-08-09T03:56:46.455Z,1.3
2022-08-09T03:58:03.637Z,1
2022-08-09T03:59:07.010Z,1.1
2022-08-09T04:00:17.009Z,1.1
2022-08-09T04:01:25.098Z,1
2022-08-09T04:02:34.798Z,1.1
2022-08-09T04:03:46.573Z,1.3
2022-08-09T04:04:53.958Z,1.3
2022-08-09T04:06:04.529Z,1.2
2022-08-09T04:07:13.336Z,1.2
2022-08-09T04:08:28.841Z,1.5
2022-08-09T04:09:42.267Z,1.5
2022-08-09T04:10:44.295Z,1.4
2022-08-09T04:11:53.994Z,1.7
2022-08-09T04:13:03.856Z,1.6
2022-08-09T04:14:37.861Z,1.3
2022-08-09T04:15:29.839Z,1.8
2022-08-09T04:16:32.582Z,1.5
2022-08-09T04:17:43.617Z,1.5
2022-08-09T04:18:52.884Z,2
2022-08-09T04:20:03.478Z,1.8
2022-08-09T04:21:13.216Z,1.7
2022-08-09T04:22:22.893Z,1.6
2022-08-09T04:23:32.602Z,2.2
2022-08-09T04:24:42.242Z,1.7
2022-08-09T04:25:52.374Z,1.6
2022-08-09T04:26:59.570Z,1.8
2022-08-09T04:28:09.256Z,1.8
2022-08-09T04:29:19.936Z,1.8
2022-08-09T04:30:29.586Z,1.6
2022-08-09T04:31:46.975Z,1
2022-08-09T04:32:49.844Z,1.2
2022-08-09T04:33:59.559Z,1.1
2022-08-09T04:35:10.318Z,1.2
2022-08-09T04:36:19.855Z,1.2
2022-08-09T04:37:42.366Z,1.2
2022-08-09T04:38:39.190Z,1.3
2022-08-09T04:39:49.819Z,1.1
2022-08-09T04:40:59.531Z,1.2
2022-08-09T04:42:09.164Z,1.3
2022-08-09T04:43:18.919Z,1.1
2022-08-09T04:44:28.611Z,1.2
2022-08-09T04:45:52.885Z,1.4
2022-08-09T04:46:57.869Z,1.2
2022-08-09T04:48:01.225Z,1.5
2022-08-09T04:49:09.098Z,1.5
2022-08-09T04:50:19.848Z,1.1
2022-08-09T04:51:27.383Z,1.3
2022-08-09T04:52:38.076Z,1.1
2022-08-09T04:53:48.410Z,1.1
2022-08-09T04:54:56.519Z,1.3
2022-08-09T04:56:06.038Z,1.1
2022-08-09T04:57:15.749Z,1.1
2022-08-09T04:58:26.459Z,1.2
2022-08-09T04:59:35.105Z,1.3
2022-08-09T05:00:44.774Z,1.6
2022-08-09T05:01:55.412Z,1.3
2022-08-09T05:03:12.855Z,1.3
2022-08-09T05:04:14.853Z,1.1
2022-08-09T05:05:31.587Z,1.2
2022-08-09T05:06:35.833Z,1.1
2022-08-09T05:07:46.413Z,1.1
2022-08-09T05:08:54.419Z,1
2022-08-09T05:10:04.072Z,1
2022-08-09T05:11:13.757Z,1.4
2022-08-09T05:12:24.427Z,1.2
2022-08-09T05:13:34.093Z,1.1
2022-08-09T05:14:43.730Z,0.9
2022-08-09T05:15:56.603Z,1
2022-08-09T05:17:05.020Z,1.1
2022-08-09T05:18:40.144Z,1.1
2022-08-09T05:19:26.440Z,1.3
2022-08-09T05:20:36.925Z,1
2022-08-09T05:21:52.543Z,1
2022-08-09T05:23:51.349Z,1.3
2022-08-09T05:24:07.241Z,1.1
2022-08-09T05:25:16.562Z,0.7
2022-08-09T05:26:31.673Z,1
2022-08-09T05:27:38.965Z,1
2022-08-09T05:28:47.595Z,1
2022-08-09T05:29:57.247Z,0.9
2022-08-09T05:31:07.446Z,0.8
2022-08-09T05:32:17.609Z,0.9
2022-08-09T05:33:32.777Z,1
2022-08-09T05:34:37.085Z,0.9
2022-08-09T05:35:49.976Z,1.1
2022-08-09T05:36:57.388Z,1.1
2022-08-09T05:38:07.049Z,0.9
2022-08-09T05:39:28.655Z,0.9
2022-08-09T05:40:26.469Z,1
2022-08-09T05:41:36.223Z,0.8
2022-08-09T05:42:44.903Z,0.7
2022-08-09T05:43:53.548Z,0.9
2022-08-09T05:45:03.295Z,0.6
2022-08-09T05:46:11.940Z,1
2022-08-09T05:47:22.674Z,1.1
2022-08-09T05:48:33.073Z,1.2
2022-08-09T05:50:24.844Z,1
2022-08-09T05:51:11.929Z,0.9
2022-08-09T05:52:04.158Z,1.1
2022-08-09T05:53:21.529Z,0.9
2022-08-09T05:54:24.496Z,0.9
2022-08-09T05:55:34.135Z,0.9
2022-08-09T05:56:54.756Z,0.7
2022-08-09T05:57:57.289Z,1.1
2022-08-09T05:59:03.258Z,0.8
2022-08-09T06:00:12.930Z,1.2
2022-08-09T06:01:22.569Z,0.9
2022-08-09T06:02:32.575Z,0.8
2022-08-09T06:03:43.861Z,0.9
2022-08-09T06:04:51.603Z,1.2
2022-08-09T06:06:04.849Z,1
2022-08-09T06:07:21.204Z,0.8
2022-08-09T06:08:24.667Z,0.8
2022-08-09T06:09:41.051Z,1.2
2022-08-09T06:10:44.107Z,0.8
2022-08-09T06:11:56.988Z,1.1
2022-08-09T06:13:11.965Z,0.8
2022-08-09T06:14:14.100Z,0.7
2022-08-09T06:15:24.736Z,0.8
2022-08-09T06:16:34.413Z,0.9
2022-08-09T06:17:44.095Z,0.9
2022-08-09T06:18:54.794Z,1.1
2022-08-09T06:20:03.563Z,0.9
2022-08-09T06:21:13.281Z,0.6
2022-08-09T06:22:26.296Z,0.9
2022-08-09T06:23:54.864Z,0.9
2022-08-09T06:24:44.193Z,0.8
2022-08-09T06:25:55.111Z,0.8
2022-08-09T06:27:02.583Z,0.8
2022-08-09T06:28:12.273Z,1
2022-08-09T06:29:21.901Z,0.9
2022-08-09T06:30:30.553Z,0.7
2022-08-09T06:32:08.227Z,0.8
2022-08-09T06:32:53.834Z,0.9
2022-08-09T06:34:01.526Z,1.2
2022-08-09T06:35:11.240Z,0.8
2022-08-09T06:36:19.877Z,0.6
2022-08-09T06:37:30.542Z,0.7
2022-08-09T06:38:42.959Z,1
2022-08-09T06:39:58.313Z,0.6
2022-08-09T06:41:03.529Z,0.5
2022-08-09T06:42:13.118Z,0.5
2022-08-09T06:43:21.914Z,0.4
2022-08-09T06:44:31.566Z,0.5
2022-08-09T06:46:05.616Z,0.7
2022-08-09T06:46:55.114Z,0.8
2022-08-09T06:48:01.691Z,0.7
2022-08-09T06:49:09.231Z,0.7
2022-08-09T06:50:19.309Z,0.7
2022-08-09T06:51:28.080Z,0.9
2022-08-09T06:52:36.321Z,0.8
2022-08-09T06:53:46.048Z,0.6
2022-08-09T06:54:56.826Z,0.6
2022-08-09T06:56:06.482Z,0.7
2022-08-09T06:57:15.176Z,0.5
2022-08-09T06:58:41.039Z,0.6
2022-08-09T07:00:53.463Z,0.9
2022-08-09T07:00:53.593Z,0.4
2022-08-09T07:01:57.899Z,0.6
2022-08-09T07:03:06.553Z,0.5
2022-08-09T07:04:19.905Z,0.6
2022-08-09T07:05:53.933Z,0.4
2022-08-09T07:06:36.610Z,0.4
2022-08-09T07:07:59.339Z,0.5
2022-08-09T07:08:56.922Z,1
2022-08-09T07:10:15.712Z,0.9
2022-08-09T07:11:17.545Z,0.4
2022-08-09T07:12:38.133Z,0.7
2022-08-09T07:13:44.889Z,0.5
2022-08-09T07:14:50.950Z,0.3
2022-08-09T07:16:39.955Z,0.4
2022-08-09T07:17:10.681Z,0.2
2022-08-09T07:18:20.402Z,0.4
2022-08-09T07:19:30.064Z,0.4
2022-08-09T07:20:39.749Z,0.6
2022-08-09T07:21:56.168Z,0.5
2022-08-09T07:23:00.032Z,0.4
2022-08-09T07:24:09.729Z,0.4
2022-08-09T07:25:19.381Z,0.3
2022-08-09T07:26:29.085Z,0.3
2022-08-09T07:27:42.503Z,0.6
2022-08-09T07:29:01.513Z,0.5
2022-08-09T07:30:00.158Z,0.4
2022-08-09T07:31:08.785Z,0.4
2022-08-09T07:32:17.452Z,0.5
2022-08-09T07:33:27.113Z,0.2
2022-08-09T07:34:36.752Z,0.4
2022-08-09T07:35:53.740Z,0.2
2022-08-09T07:36:55.046Z,0.3
2022-08-09T07:38:03.696Z,0.3
2022-08-09T07:39:19.742Z,0.5
2022-08-09T07:40:25.253Z,0.3
2022-08-09T07:41:38.767Z,0.6
2022-08-09T07:42:43.468Z,0.4
2022-08-09T07:43:56.150Z,0.4
2022-08-09T07:45:06.598Z,0.3
2022-08-09T07:46:19.015Z,0.5
2022-08-09T07:47:24.223Z,0.2
2022-08-09T07:48:33.903Z,0.3
2022-08-09T07:49:52.471Z,0.3
2022-08-09T07:51:03.466Z,0.3
2022-08-09T07:52:16.661Z,0.3
2022-08-09T07:53:16.751Z,0.1
2022-08-09T07:54:27.780Z,0.3
2022-08-09T07:55:41.103Z,0.3
2022-08-09T07:56:49.497Z,0.4
2022-08-09T07:57:59.267Z,0.4
2022-08-09T07:59:12.690Z,0.2
2022-08-09T08:00:20.131Z,0.5
2022-08-09T08:01:33.231Z,0.3
2022-08-09T08:02:42.311Z,0.2
2022-08-09T08:03:50.770Z,0.5
2022-08-09T08:05:00.500Z,0.4
2022-08-09T08:06:10.339Z,0.1
2022-08-09T08:08:06.455Z,0.2
2022-08-09T08:08:44.946Z,0.2
2022-08-09T08:09:46.098Z,0.3
2022-08-09T08:11:03.247Z,0.2
2022-08-09T08:12:09.568Z,0.3
2022-08-09T08:13:14.235Z,0.3
2022-08-09T08:14:23.941Z,0.1
2022-08-09T08:15:35.456Z,0.4
2022-08-09T08:16:51.315Z,0.2
2022-08-09T08:17:58.508Z,0.2
2022-08-09T08:19:05.506Z,0.2
2022-08-09T08:20:15.144Z,0.3
2022-08-09T08:21:23.792Z,0.2
2022-08-09T08:22:33.732Z,0.2
2022-08-09T08:23:42.111Z,0.2
2022-08-09T08:24:51.784Z,0.1
2022-08-09T08:26:06.308Z,0.4
2022-08-09T08:27:16.381Z,0.1
2022-08-09T08:28:25.801Z,0.3
2022-08-09T08:29:39.310Z,0.1
2022-08-09T08:30:43.050Z,0.1
2022-08-09T08:32:02.816Z,0.2
2022-08-09T08:33:04.331Z,0.3
2022-08-09T08:34:14.124Z,0.2
2022-08-09T08:35:23.655Z,0.2
2022-08-09T08:36:34.328Z,0.1
2022-08-09T08:38:00.095Z,0.3
2022-08-09T08:38:54.629Z,0.3
2022-08-09T08:40:05.336Z,0.2
2022-08-09T08:41:14.974Z,0.2
2022-08-09T08:42:24.173Z,0.2
2022-08-09T08:43:33.268Z,0.2
2022-08-09T08:44:43.962Z,0.2
2022-08-09T08:45:59.592Z,0.2
2022-08-09T08:47:12.736Z,0.1
2022-08-09T08:48:16.809Z,0.2
2022-08-09T08:49:28.180Z,0.2
2022-08-09T08:50:35.302Z,0.1
2022-08-09T08:51:52.793Z,0.1
2022-08-09T08:52:58.667Z,0.2
2022-08-09T08:54:06.393Z,0.4
2022-08-09T08:55:18.988Z,0.3
2022-08-09T08:56:28.127Z,0.1
2022-08-09T08:57:37.969Z,0.3
2022-08-09T08:58:47.181Z,0.2
2022-08-09T08:59:57.192Z,0.2
2022-08-09T09:01:08.817Z,0.3
2022-08-09T09:02:16.174Z,0.3
2022-08-09T09:03:33.406Z,0.2
2022-08-09T09:04:47.715Z,0.3
2022-08-09T09:05:58.041Z,0.2
2022-08-09T09:06:58.135Z,0.3
2022-08-09T09:08:08.074Z,0.2
2022-08-09T09:09:20.953Z,0.2
2022-08-09T09:10:29.019Z,0.1
2022-08-09T09:11:38.734Z,0.3
2022-08-09T09:12:48.343Z,0.3
2022-08-09T09:13:58.660Z,0.1
2022-08-09T09:15:08.732Z,0.2
2022-08-09T09:16:17.373Z,0.2
2022-08-09T09:17:30.761Z,0.1
2022-08-09T09:18:38.692Z,0
2022-08-09T09:19:47.375Z,0.2
2022-08-09T09:20:58.041Z,0.1
2022-08-09T09:22:11.199Z,0.1
2022-08-09T09:23:17.387Z,0.2
2022-08-09T09:24:27.051Z,0.2
2022-08-09T09:26:02.926Z,0.2
2022-08-09T09:26:48.379Z,0.2
2022-08-09T09:28:04.905Z,0.1
2022-08-09T09:29:11.455Z,0.1
2022-08-09T09:30:39.181Z,0.3
2022-08-09T09:32:04.231Z,0.2
2022-08-09T09:32:40.595Z,0.2
2022-08-09T09:33:56.767Z,0.1
2022-08-09T09:34:59.886Z,0.2
2022-08-09T09:36:11.853Z,0.6
2022-08-09T09:37:20.227Z,0.1
2022-08-09T09:38:36.519Z,0.3
2022-08-09T09:39:43.069Z,0.2
2022-08-09T09:40:51.251Z,0.1
2022-08-09T09:41:59.936Z,0.1
2022-08-09T09:43:09.585Z,0.2
2022-08-09T09:44:25.647Z,0.2
2022-08-09T09:45:31.058Z,0.2
2022-08-09T09:46:42.726Z,0.1
2022-08-09T09:47:56.818Z,0.1
2022-08-09T09:49:01.012Z,0.2
2022-08-09T09:50:15.512Z,0.2
2022-08-09T09:51:26.233Z,0.1
2022-08-09T09:52:37.059Z,0.1
2022-08-09T09:53:44.129Z,0.2
2022-08-09T09:54:54.837Z,0.3
2022-08-09T09:56:04.040Z,0.3
2022-08-09T09:58:02.098Z,0.1
2022-08-09T09:58:24.510Z,0.1
2022-08-09T09:59:35.337Z,0.2
2022-08-09T10:00:44.573Z,0.4
2022-08-09T10:01:55.282Z,0.2
2022-08-09T10:03:09.030Z,0.1
2022-08-09T10:04:12.746Z,0.2
2022-08-09T10:05:26.913Z,0.1
2022-08-09T10:06:32.650Z,0.1
2022-08-09T10:08:01.268Z,0.3
2022-08-09T10:08:55.354Z,0.1
2022-08-09T10:10:04.055Z,0.2
2022-08-09T10:11:31.019Z,0.2
2022-08-09T10:12:27.913Z,0.1
2022-08-09T10:13:42.977Z,0.2
2022-08-09T10:14:48.128Z,0.2
2022-08-09T10:16:09.734Z,0.2
2022-08-09T10:17:09.559Z,0
2022-08-09T10:18:16.559Z,0.3
2022-08-09T10:19:26.209Z,0.2
2022-08-09T10:20:44.612Z,0.3
2022-08-09T10:21:48.667Z,0.2
2022-08-09T10:23:00.506Z,0.2
2022-08-09T10:24:06.808Z,0.1
2022-08-09T10:25:20.781Z,0.1
2022-08-09T10:26:28.203Z,0.1
2022-08-09T10:27:38.848Z,0.1
2022-08-09T10:28:48.664Z,0.2
2022-08-09T10:30:16.430Z,0.2
2022-08-09T10:32:15.170Z,0.1
2022-08-09T10:34:05.031Z,0.1
2022-08-09T10:34:40.423Z,0.2
2022-08-09T10:35:49.410Z,0.1
2022-08-09T10:36:59.187Z,0.4
2022-08-09T10:38:34.193Z,0.3
2022-08-09T10:39:19.232Z,0.3
2022-08-09T10:40:33.639Z,0.2
2022-08-09T10:41:39.804Z,0.2
2022-08-09T10:42:52.928Z,0.2
2022-08-09T10:44:01.606Z,0.1
2022-08-09T10:45:12.177Z,0.1
2022-08-09T10:46:25.251Z,0.1
2022-08-09T10:48:13.071Z,0.3
2022-08-09T10:48:42.869Z,0.3
2022-08-09T10:49:54.131Z,0.2
2022-08-09T10:51:02.134Z,0.2
2022-08-09T10:52:13.443Z,0.2
2022-08-09T10:53:23.139Z,0.2
2022-08-09T10:54:32.142Z,0.2
2022-08-09T10:55:55.623Z,0.3
2022-08-09T10:56:50.517Z,0.3
2022-08-09T10:58:00.768Z,0.4
2022-08-09T10:59:09.950Z,0.4
2022-08-09T11:00:20.634Z,0.4
2022-08-09T11:03:05.779Z,0.2
2022-08-09T11:03:07.072Z,0.3
2022-08-09T11:03:53.268Z,0.5
2022-08-09T11:05:02.253Z,0.2
2022-08-09T11:06:11.872Z,0.4
2022-08-09T11:07:22.015Z,0.3
2022-08-09T11:08:33.229Z,0.2
2022-08-09T11:09:45.298Z,0.1
2022-08-09T11:10:54.590Z,0.1
2022-08-09T11:12:05.109Z,0.3
2022-08-09T11:13:14.089Z,0.2
2022-08-09T11:14:27.905Z,0.1
2022-08-09T11:15:38.342Z,0.1
2022-08-09T11:16:47.124Z,0.2
2022-08-09T11:17:56.968Z,0.1
2022-08-09T11:19:08.149Z,0.2
2022-08-09T11:20:20.617Z,0.2
2022-08-09T11:21:26.734Z,0.3
2022-08-09T11:22:36.662Z,0.1
2022-08-09T11:23:49.199Z,0.3
2022-08-09T11:24:56.720Z,0.3
2022-08-09T11:26:06.361Z,0.3
2022-08-09T11:27:15.996Z,0.1
2022-08-09T11:28:27.706Z,0.4
2022-08-09T11:30:05.495Z,0.3
2022-08-09T11:30:48.290Z,0.1
2022-08-09T11:31:57.585Z,0.2
2022-08-09T11:33:07.235Z,0.1
2022-08-09T11:34:16.969Z,0.3
2022-08-09T11:35:26.812Z,0.2
2022-08-09T11:36:37.290Z,0.4
2022-08-09T11:37:49.681Z,0.3
2022-08-09T11:38:57.584Z,0.3
2022-08-09T11:40:07.291Z,0.2
2022-08-09T11:41:17.164Z,0.1
2022-08-09T11:42:26.019Z,0.2
2022-08-09T11:43:35.850Z,0.3
2022-08-09T11:44:45.788Z,0.3
2022-08-09T11:45:53.628Z,0.2
2022-08-09T11:47:03.554Z,0.2
2022-08-09T11:48:18.917Z,0.3
2022-08-09T11:49:27.968Z,0.2
2022-08-09T11:50:54.465Z,0.2
2022-08-09T11:52:49.864Z,0.4
2022-08-09T11:53:04.576Z,0.2
2022-08-09T11:54:22.134Z,0.1
2022-08-09T11:55:34.801Z,0.1
2022-08-09T11:56:42.103Z,0.1
2022-08-09T11:58:01.068Z,0.2
2022-08-09T11:58:57.227Z,0.1
2022-08-09T12:00:10.651Z,0.2
2022-08-09T12:01:37.951Z,0.7
2022-08-09T12:02:35.020Z,0.3
2022-08-09T12:03:56.400Z,0.3
2022-08-09T12:04:48.507Z,0.2
2022-08-09T12:05:58.445Z,0.2
2022-08-09T12:07:08.862Z,0.2
2022-08-09T12:08:19.931Z,0.2
2022-08-09T12:09:33.557Z,0.3
2022-08-09T12:10:40.213Z,0.1
2022-08-09T12:12:02.864Z,0.1
2022-08-09T12:13:00.111Z,0.2
2022-08-09T12:14:18.144Z,0.1
2022-08-09T12:15:22.201Z,0.1
2022-08-09T12:16:37.985Z,0.2
2022-08-09T12:17:47.750Z,0.2
2022-08-09T12:18:54.898Z,0.1
2022-08-09T12:20:04.880Z,0
2022-08-09T12:21:26.714Z,0
2022-08-09T12:22:26.161Z,0.3
2022-08-09T12:23:47.834Z,0.1
2022-08-09T12:24:46.461Z,0.1
2022-08-09T12:25:56.309Z,0.2
2022-08-09T12:28:57.963Z,0
2022-08-09T12:29:00.773Z,0.1
2022-08-09T12:29:33.805Z,0.2
2022-08-09T12:30:39.451Z,0.2
2022-08-09T12:31:59.520Z,0.1
2022-08-09T12:32:58.031Z,0.1
2022-08-09T12:34:07.037Z,0.1
2022-08-09T12:35:19.203Z,0.1
2022-08-09T12:36:31.579Z,0
2022-08-09T12:37:44.443Z,0
2022-08-09T12:38:49.863Z,0.1
2022-08-09T12:39:59.785Z,0.1
2022-08-09T12:41:10.560Z,0.1
2022-08-09T12:42:21.426Z,0.1
2022-08-09T12:44:04.674Z,0.3
2022-08-09T12:44:46.252Z,0.3
2022-08-09T12:45:59.522Z,0.1
2022-08-09T12:47:05.689Z,0
2022-08-09T12:48:20.332Z,0.1
2022-08-09T12:49:25.676Z,0.1
2022-08-09T12:50:35.803Z,0.1
2022-08-09T12:51:53.025Z,0.2
2022-08-09T12:53:08.429Z,0.1
2022-08-09T12:54:08.891Z,0.1
2022-08-09T12:56:11.277Z,0.2
2022-08-09T12:56:40.214Z,0.3
2022-08-09T12:57:40.437Z,0.2
2022-08-09T12:58:52.490Z,0.2
2022-08-09T13:00:05.013Z,0.2
2022-08-09T13:01:12.134Z,0.1
2022-08-09T13:02:22.278Z,0.1
2022-08-09T13:03:40.905Z,0.2
2022-08-09T13:04:42.241Z,0.2
2022-08-09T13:06:13.400Z,0.2
2022-08-09T13:07:01.171Z,0
2022-08-09T13:08:11.225Z,0.3
2022-08-09T13:09:21.171Z,0.2
2022-08-09T13:10:34.636Z,0.1
2022-08-09T13:11:42.403Z,0.1
2022-08-09T13:13:09.357Z,0.1
2022-08-09T13:14:38.253Z,0.2
2022-08-09T13:15:13.644Z,0.2
2022-08-09T13:16:21.306Z,0.1
2022-08-09T13:17:44.648Z,0.1
2022-08-09T13:18:41.648Z,0.2
2022-08-09T13:20:07.931Z,0.1
2022-08-09T13:21:04.689Z,0.2
2022-08-09T13:22:34.565Z,0.2
2022-08-09T13:24:06.490Z,0.1
2022-08-09T13:24:42.468Z,0.1
2022-08-09T13:25:52.716Z,0.1
2022-08-09T13:26:55.488Z,0.3
2022-08-09T13:28:05.184Z,0.2
2022-08-09T13:29:15.941Z,0.1
2022-08-09T13:30:49.858Z,0.1
2022-08-09T13:32:10.033Z,0.1
2022-08-09T13:32:48.534Z,0.1
2022-08-09T13:33:57.019Z,0.2
2022-08-09T13:35:05.474Z,0.1
2022-08-09T13:36:23.810Z,0.2
2022-08-09T13:37:51.590Z,0.3
2022-08-09T13:38:54.791Z,0.2
2022-08-09T13:41:21.512Z,0.2
2022-08-09T13:41:21.833Z,0.2
2022-08-09T13:42:12.366Z,0.1
2022-08-09T13:43:20.212Z,0.2
2022-08-09T13:44:28.981Z,0.2
2022-08-09T13:46:08.982Z,0
2022-08-09T13:47:18.030Z,0.2
2022-08-09T13:48:00.104Z,0.2
2022-08-09T13:49:15.936Z,0.2
2022-08-09T13:50:30.882Z,0.1
2022-08-09T13:51:31.232Z,0.4
2022-08-09T13:52:41.718Z,0.2
2022-08-09T13:53:49.592Z,0.2
2022-08-09T13:55:04.429Z,0.4
2022-08-09T13:56:11.102Z,0.1
2022-08-09T13:57:35.249Z,0.1
2022-08-09T13:58:31.391Z,0.1
2022-08-09T13:59:41.920Z,0
2022-08-09T14:00:52.863Z,0.1
2022-08-09T14:02:02.447Z,0.1
2022-08-09T14:03:17.266Z,0.1
2022-08-09T14:04:23.698Z,0
2022-08-09T14:05:56.314Z,0.1
2022-08-09T14:06:46.608Z,0.1
2022-08-09T14:07:54.844Z,0.2
2022-08-09T14:09:04.537Z,0.2
2022-08-09T14:10:17.117Z,0.3
2022-08-09T14:11:24.944Z,0.2
2022-08-09T14:12:33.840Z,0.3
2022-08-09T14:14:16.751Z,0.5
2022-08-09T14:14:54.107Z,0.1
2022-08-09T14:16:07.400Z,0.1
2022-08-09T14:17:16.951Z,0
2022-08-09T14:18:27.553Z,0.3
2022-08-09T14:19:36.864Z,0.1
2022-08-09T14:20:46.548Z,0.1
2022-08-09T14:21:55.235Z,0.1
2022-08-09T14:23:05.938Z,0.1
2022-08-09T14:24:18.472Z,0.1
2022-08-09T14:25:25.378Z,0.1
2022-08-09T14:26:36.032Z,0.3
2022-08-09T14:27:57.263Z,0.2
2022-08-09T14:28:56.372Z,0.1
2022-08-09T14:30:15.369Z,0.3
2022-08-09T14:31:14.906Z,0.1
2022-08-09T14:32:28.857Z,0.1
2022-08-09T14:33:37.973Z,0.1
2022-08-09T14:34:45.905Z,0.1
2022-08-09T14:35:55.638Z,0.1
2022-08-09T14:37:05.960Z,0.1
2022-08-09T14:38:14.303Z,0.1
2022-08-09T14:39:39.801Z,0.1
2022-08-09T14:40:38.021Z,0.2
2022-08-09T14:41:45.474Z,0.2
2022-08-09T14:42:55.102Z,0.2
2022-08-09T14:44:04.823Z,0.4
2022-08-09T14:46:40.905Z,0
2022-08-09T14:46:40.947Z,0.1
2022-08-09T14:47:43.150Z,0.1
2022-08-09T14:48:46.718Z,0.1
2022-08-09T14:50:01.274Z,0.1
2022-08-09T14:51:08.100Z,0
2022-08-09T14:52:16.772Z,0.1
2022-08-09T14:53:24.447Z,0.1
2022-08-09T14:54:34.202Z,0
2022-08-09T14:55:47.714Z,0.1
2022-08-09T14:56:53.863Z,0.1
2022-08-09T14:58:03.593Z,0.3
2022-08-09T14:59:14.382Z,0.2
2022-08-09T15:00:23.736Z,0.1
2022-08-09T15:01:32.527Z,0.1
2022-08-09T15:02:42.143Z,0.3
2022-08-09T15:03:51.903Z,0.1
2022-08-09T15:04:59.555Z,0.1
2022-08-09T15:06:08.234Z,0.2
2022-08-09T15:07:17.917Z,0.1
2022-08-09T15:08:30.252Z,0.1
2022-08-09T15:10:04.419Z,0
2022-08-09T15:11:00.220Z,0.1
2022-08-09T15:11:59.875Z,0.2
2022-08-09T15:13:09.572Z,0
2022-08-09T15:14:19.390Z,0.2
2022-08-09T15:15:28.964Z,0.2
2022-08-09T15:16:37.622Z,0.1
2022-08-09T15:17:51.674Z,0.2
2022-08-09T15:18:59.600Z,0.1
2022-08-09T15:20:07.747Z,0.1
2022-08-09T15:21:53.838Z,0.1
2022-08-09T15:22:29.169Z,0.1
2022-08-09T15:23:56.459Z,0.2
2022-08-09T15:24:49.496Z,0.1
2022-08-09T15:25:58.238Z,0.1
2022-08-09T15:27:07.879Z,0.1
2022-08-09T15:28:20.281Z,0
2022-08-09T15:30:47.710Z,0
2022-08-09T15:30:49.219Z,0.1
2022-08-09T15:31:49.765Z,0.1
2022-08-09T15:32:59.437Z,0
2022-08-09T15:34:18.451Z,0.1
2022-08-09T15:35:40.553Z,0.1
2022-08-09T15:36:30.692Z,0.1
2022-08-09T15:37:56.442Z,0.2
2022-08-09T15:38:49.941Z,0.3
2022-08-09T15:39:59.703Z,0.1
2022-08-09T15:41:09.910Z,0.1
2022-08-09T15:42:18.793Z,0.1
2022-08-09T15:43:30.037Z,0.1
2022-08-09T15:44:39.407Z,0.2
2022-08-09T15:45:51.550Z,0.1
2022-08-09T15:47:00.915Z,0.1
2022-08-09T15:48:15.785Z,0.1
2022-08-09T15:49:23.676Z,0.1
2022-08-09T15:50:30.821Z,0.1
2022-08-09T15:51:44.308Z,0
2022-08-09T15:52:54.779Z,0.1
2022-08-09T15:54:02.993Z,0
2022-08-09T15:55:11.539Z,0.1
2022-08-09T15:56:28.387Z,0.1
2022-08-09T15:57:33.977Z,0.2
2022-08-09T15:58:42.718Z,0.1
2022-08-09T15:59:52.452Z,0.1
2022-08-09T16:01:02.213Z,0
2022-08-09T16:02:13.242Z,0.1
2022-08-09T16:03:26.615Z,0.1
2022-08-09T16:04:33.354Z,0.2
2022-08-09T16:05:47.393Z,0.1
2022-08-09T16:06:53.729Z,0.1
2022-08-09T16:08:03.488Z,0.1
2022-08-09T16:09:12.212Z,0.2
2022-08-09T16:10:39.105Z,0.1
2022-08-09T16:11:33.938Z,0.1